Levelland, Texas
Current Conditions -  °F | °C
As of 6:53 PM on Sunday 23 Nov 2014 (Local Time) from KLBB Reporting Station
Broken Clouds Broken Clouds  
Wind Chill: 34°   Ceiling: 9000
Heat Index: 40°   Visibility: 10mi
Dew Point: 28°   Wind: 8mph
Humidity: 63%   Direction: 340°NNW
Pressure: 29.86"   Gusts: NA
Location:  33.59°N, 102.37°W
Report Text: KLBB 240053Z 34007KT 10SM FEW050 BKN090 04/M02 A2986 RMK AO2 SLP097 T00441022
Loading
Personal Weather Stations






























Interactive Weather Map New forecast layout! Learn more

10-Day Weather Forecast

Advertisements
Track Severe Weather on mobile